sensor_id;sensor_type;location;lat;lon;timestamp;temperature;humidity
17948;DHT22;9099;47.958;11.366;2022-11-04T00:02:03;12.50;99.90
17948;DHT22;9099;47.958;11.366;2022-11-04T00:04:30;12.50;99.90
17948;DHT22;9099;47.958;11.366;2022-11-04T00:06:57;12.40;99.90
17948;DHT22;9099;47.958;11.366;2022-11-04T00:09:26;12.30;99.90
17948;DHT22;9099;47.958;11.366;2022-11-04T00:11:54;12.30;99.90
17948;DHT22;9099;47.958;11.366;2022-11-04T00:14:38;12.30;99.90
17948;DHT22;9099;47.958;11.366;2022-11-04T00:17:09;12.30;99.90
17948;DHT22;9099;47.958;11.366;2022-11-04T00:19:44;12.20;99.90
17948;DHT22;9099;47.958;11.366;2022-11-04T00:22:41;12.10;99.90
17948;DHT22;9099;47.958;11.366;2022-11-04T00:25:27;12.00;99.90
17948;DHT22;9099;47.958;11.366;2022-11-04T00:28:12;12.00;99.90
17948;DHT22;9099;47.958;11.366;2022-11-04T00:30:57;11.90;99.90
17948;DHT22;9099;47.958;11.366;2022-11-04T00:33:45;11.80;99.90
17948;DHT22;9099;47.958;11.366;2022-11-04T00:36:11;11.70;99.90
17948;DHT22;9099;47.958;11.366;2022-11-04T00:38:38;11.60;99.90
17948;DHT22;9099;47.958;11.366;2022-11-04T00:41:06;11.50;99.90
17948;DHT22;9099;47.958;11.366;2022-11-04T00:43:50;11.40;99.90
17948;DHT22;9099;47.958;11.366;2022-11-04T00:46:17;11.30;99.90
17948;DHT22;9099;47.958;11.366;2022-11-04T00:48:44;11.20;99.90
17948;DHT22;9099;47.958;11.366;2022-11-04T00:51:11;11.10;99.90
17948;DHT22;9099;47.958;11.366;2022-11-04T00:53:37;11.10;99.90
17948;DHT22;9099;47.958;11.366;2022-11-04T00:56:06;11.00;99.90
17948;DHT22;9099;47.958;11.366;2022-11-04T00:58:33;10.90;99.90
17948;DHT22;9099;47.958;11.366;2022-11-04T01:01:00;10.80;99.90
17948;DHT22;9099;47.958;11.366;2022-11-04T01:03:32;10.80;99.90
17948;DHT22;9099;47.958;11.366;2022-11-04T01:05:59;10.60;99.90
17948;DHT22;9099;47.958;11.366;2022-11-04T01:08:26;10.60;99.90
17948;DHT22;9099;47.958;11.366;2022-11-04T01:10:53;10.50;99.90
17948;DHT22;9099;47.958;11.366;2022-11-04T01:13:21;10.40;99.90
17948;DHT22;9099;47.958;11.366;2022-11-04T01:15:48;10.30;99.90
17948;DHT22;9099;47.958;11.366;2022-11-04T01:18:14;10.30;99.90
17948;DHT22;9099;47.958;11.366;2022-11-04T01:20:41;10.20;99.90
17948;DHT22;9099;47.958;11.366;2022-11-04T01:23:08;10.30;99.90
17948;DHT22;9099;47.958;11.366;2022-11-04T01:25:38;10.20;99.90
17948;DHT22;9099;47.958;11.366;2022-11-04T01:28:05;10.20;99.90
17948;DHT22;9099;47.958;11.366;2022-11-04T01:30:33;10.20;99.90
17948;DHT22;9099;47.958;11.366;2022-11-04T01:33:03;10.20;99.90
17948;DHT22;9099;47.958;11.366;2022-11-04T01:35:30;10.10;99.90
17948;DHT22;9099;47.958;11.366;2022-11-04T01:37:57;10.10;99.90
17948;DHT22;9099;47.958;11.366;2022-11-04T01:40:23;10.10;99.90
17948;DHT22;9099;47.958;11.366;2022-11-04T01:42:50;10.10;99.90
17948;DHT22;9099;47.958;11.366;2022-11-04T01:45:20;10.00;99.90
17948;DHT22;9099;47.958;11.366;2022-11-04T01:47:51;10.00;99.90
17948;DHT22;9099;47.958;11.366;2022-11-04T01:50:24;10.00;99.90
17948;DHT22;9099;47.958;11.366;2022-11-04T01:52:54;10.10;99.90
17948;DHT22;9099;47.958;11.366;2022-11-04T01:55:23;10.00;99.90
17948;DHT22;9099;47.958;11.366;2022-11-04T01:57:55;10.00;99.90
17948;DHT22;9099;47.958;11.366;2022-11-04T02:00:25;10.00;99.90
17948;DHT22;9099;47.958;11.366;2022-11-04T02:02:58;10.00;99.90
17948;DHT22;9099;47.958;11.366;2022-11-04T02:05:27;10.00;99.90
17948;DHT22;9099;47.958;11.366;2022-11-04T02:07:56;9.90;99.90
17948;DHT22;9099;47.958;11.366;2022-11-04T02:10:27;10.00;99.90
17948;DHT22;9099;47.958;11.366;2022-11-04T02:12:56;10.00;99.90
17948;DHT22;9099;47.958;11.366;2022-11-04T02:15:32;10.00;99.90
17948;DHT22;9099;47.958;11.366;2022-11-04T02:18:15;10.00;99.90
17948;DHT22;9099;47.958;11.366;2022-11-04T02:21:10;10.00;99.90
17948;DHT22;9099;47.958;11.366;2022-11-04T02:27:14;9.90;99.90
17948;DHT22;9099;47.958;11.366;2022-11-04T02:32:49;10.00;99.90
17948;DHT22;9099;47.958;11.366;2022-11-04T02:35:22;9.90;99.90
17948;DHT22;9099;47.958;11.366;2022-11-04T02:37:56;9.90;99.90
17948;DHT22;9099;47.958;11.366;2022-11-04T02:40:33;9.90;99.90
17948;DHT22;9099;47.958;11.366;2022-11-04T02:43:07;10.00;99.90
17948;DHT22;9099;47.958;11.366;2022-11-04T02:45:40;10.00;99.90
17948;DHT22;9099;47.958;11.366;2022-11-04T02:48:11;10.00;99.90
17948;DHT22;9099;47.958;11.366;2022-11-04T02:50:43;10.00;99.90
17948;DHT22;9099;47.958;11.366;2022-11-04T02:53:16;10.00;99.90
17948;DHT22;9099;47.958;11.366;2022-11-04T02:55:46;10.00;99.90
17948;DHT22;9099;47.958;11.366;2022-11-04T02:58:17;10.00;99.90
17948;DHT22;9099;47.958;11.366;2022-11-04T03:00:46;10.00;99.90
17948;DHT22;9099;47.958;11.366;2022-11-04T03:03:20;10.10;99.90
17948;DHT22;9099;47.958;11.366;2022-11-04T03:05:49;10.10;99.90
17948;DHT22;9099;47.958;11.366;2022-11-04T03:08:21;10.20;99.90
17948;DHT22;9099;47.958;11.366;2022-11-04T03:10:51;10.20;99.90
17948;DHT22;9099;47.958;11.366;2022-11-04T03:13:21;10.20;99.90
17948;DHT22;9099;47.958;11.366;2022-11-04T03:15:55;10.20;99.90
17948;DHT22;9099;47.958;11.366;2022-11-04T03:18:31;10.20;99.90
17948;DHT22;9099;47.958;11.366;2022-11-04T03:21:02;10.20;99.90
17948;DHT22;9099;47.958;11.366;2022-11-04T03:23:30;10.30;99.90
17948;DHT22;9099;47.958;11.366;2022-11-04T03:26:03;10.30;99.90
17948;DHT22;9099;47.958;11.366;2022-11-04T03:28:40;10.30;99.90
17948;DHT22;9099;47.958;11.366;2022-11-04T03:31:14;10.30;99.90
17948;DHT22;9099;47.958;11.366;2022-11-04T03:33:47;10.30;99.90
17948;DHT22;9099;47.958;11.366;2022-11-04T03:36:14;10.40;99.90
17948;DHT22;9099;47.958;11.366;2022-11-04T03:38:41;10.40;99.90
17948;DHT22;9099;47.958;11.366;2022-11-04T03:41:13;10.40;99.90
17948;DHT22;9099;47.958;11.366;2022-11-04T03:43:41;10.50;99.90
17948;DHT22;9099;47.958;11.366;2022-11-04T03:46:10;10.40;99.90
17948;DHT22;9099;47.958;11.366;2022-11-04T03:48:37;10.40;99.90
17948;DHT22;9099;47.958;11.366;2022-11-04T03:51:04;10.40;99.90
17948;DHT22;9099;47.958;11.366;2022-11-04T03:53:31;10.50;99.90
17948;DHT22;9099;47.958;11.366;2022-11-04T03:56:20;10.50;99.90
17948;DHT22;9099;47.958;11.366;2022-11-04T03:58:59;10.40;99.90
17948;DHT22;9099;47.958;11.366;2022-11-04T04:01:38;10.40;99.90
17948;DHT22;9099;47.958;11.366;2022-11-04T04:04:14;10.40;99.90
17948;DHT22;9099;47.958;11.366;2022-11-04T04:06:43;10.40;99.90
17948;DHT22;9099;47.958;11.366;2022-11-04T04:09:16;10.40;99.90
17948;DHT22;9099;47.958;11.366;2022-11-04T04:11:49;10.40;99.90
17948;DHT22;9099;47.958;11.366;2022-11-04T04:14:20;10.40;99.90
17948;DHT22;9099;47.958;11.366;2022-11-04T04:17:05;10.30;99.90
17948;DHT22;9099;47.958;11.366;2022-11-04T04:19:33;10.30;99.90
17948;DHT22;9099;47.958;11.366;2022-11-04T04:22:04;10.30;99.90
17948;DHT22;9099;47.958;11.366;2022-11-04T04:24:35;10.30;99.90
17948;DHT22;9099;47.958;11.366;2022-11-04T04:27:20;10.30;99.90
17948;DHT22;9099;47.958;11.366;2022-11-04T04:29:58;10.30;99.90
17948;DHT22;9099;47.958;11.366;2022-11-04T04:32:28;10.20;99.90
17948;DHT22;9099;47.958;11.366;2022-11-04T04:34:56;10.20;99.90
17948;DHT22;9099;47.958;11.366;2022-11-04T04:37:39;10.30;99.90
17948;DHT22;9099;47.958;11.366;2022-11-04T04:40:08;10.30;99.90
17948;DHT22;9099;47.958;11.366;2022-11-04T04:42:55;10.30;99.90
17948;DHT22;9099;47.958;11.366;2022-11-04T04:45:41;10.40;99.90
17948;DHT22;9099;47.958;11.366;2022-11-04T04:48:11;10.30;99.90
17948;DHT22;9099;47.958;11.366;2022-11-04T04:50:41;10.30;99.90
17948;DHT22;9099;47.958;11.366;2022-11-04T04:53:08;10.20;99.90
17948;DHT22;9099;47.958;11.366;2022-11-04T04:55:36;10.20;99.90
17948;DHT22;9099;47.958;11.366;2022-11-04T04:58:03;10.20;99.90
17948;DHT22;9099;47.958;11.366;2022-11-04T05:00:30;10.20;99.90
17948;DHT22;9099;47.958;11.366;2022-11-04T05:02:57;10.20;99.90
17948;DHT22;9099;47.958;11.366;2022-11-04T05:05:25;10.20;99.90
17948;DHT22;9099;47.958;11.366;2022-11-04T05:07:52;10.20;99.90
17948;DHT22;9099;47.958;11.366;2022-11-04T05:10:19;10.30;99.90
17948;DHT22;9099;47.958;11.366;2022-11-04T05:12:46;10.30;99.90
17948;DHT22;9099;47.958;11.366;2022-11-04T05:15:31;10.30;99.90
17948;DHT22;9099;47.958;11.366;2022-11-04T05:17:59;10.30;99.90
17948;DHT22;9099;47.958;11.366;2022-11-04T05:20:27;10.40;99.90
17948;DHT22;9099;47.958;11.366;2022-11-04T05:22:55;10.40;99.90
17948;DHT22;9099;47.958;11.366;2022-11-04T05:25:21;10.40;99.90
17948;DHT22;9099;47.958;11.366;2022-11-04T05:27:48;10.30;99.90
17948;DHT22;9099;47.958;11.366;2022-11-04T05:30:15;10.20;99.90
17948;DHT22;9099;47.958;11.366;2022-11-04T05:32:42;10.20;99.90
17948;DHT22;9099;47.958;11.366;2022-11-04T05:35:09;10.10;99.90
17948;DHT22;9099;47.958;11.366;2022-11-04T05:37:37;10.10;99.90
17948;DHT22;9099;47.958;11.366;2022-11-04T05:40:05;10.00;99.90
17948;DHT22;9099;47.958;11.366;2022-11-04T05:42:32;9.90;99.90
17948;DHT22;9099;47.958;11.366;2022-11-04T05:45:01;9.80;99.90
17948;DHT22;9099;47.958;11.366;2022-11-04T05:47:29;9.80;99.90
17948;DHT22;9099;47.958;11.366;2022-11-04T05:49:55;9.80;99.90
17948;DHT22;9099;47.958;11.366;2022-11-04T05:52:22;9.80;99.90
17948;DHT22;9099;47.958;11.366;2022-11-04T05:54:50;9.80;99.90
17948;DHT22;9099;47.958;11.366;2022-11-04T05:57:17;9.80;99.90
17948;DHT22;9099;47.958;11.366;2022-11-04T05:59:44;9.80;99.90
17948;DHT22;9099;47.958;11.366;2022-11-04T06:02:11;9.80;99.90
17948;DHT22;9099;47.958;11.366;2022-11-04T06:04:38;9.80;99.90
17948;DHT22;9099;47.958;11.366;2022-11-04T06:07:05;9.70;99.90
17948;DHT22;9099;47.958;11.366;2022-11-04T06:09:31;9.60;99.90
17948;DHT22;9099;47.958;11.366;2022-11-04T06:12:07;9.60;99.90
17948;DHT22;9099;47.958;11.366;2022-11-04T06:14:35;9.50;99.90
17948;DHT22;9099;47.958;11.366;2022-11-04T06:17:02;9.60;99.90
17948;DHT22;9099;47.958;11.366;2022-11-04T06:19:29;9.60;99.90
17948;DHT22;9099;47.958;11.366;2022-11-04T06:21:56;9.70;99.90
17948;DHT22;9099;47.958;11.366;2022-11-04T06:24:22;9.70;99.90
17948;DHT22;9099;47.958;11.366;2022-11-04T06:26:49;9.60;99.90
17948;DHT22;9099;47.958;11.366;2022-11-04T06:29:17;9.60;99.90
17948;DHT22;9099;47.958;11.366;2022-11-04T06:31:44;9.60;99.90
17948;DHT22;9099;47.958;11.366;2022-11-04T06:34:11;9.50;99.90
17948;DHT22;9099;47.958;11.366;2022-11-04T06:36:38;9.50;99.90
17948;DHT22;9099;47.958;11.366;2022-11-04T06:39:05;9.50;99.90
17948;DHT22;9099;47.958;11.366;2022-11-04T06:41:31;9.40;99.90
17948;DHT22;9099;47.958;11.366;2022-11-04T06:43:59;9.30;99.90
17948;DHT22;9099;47.958;11.366;2022-11-04T06:46:30;9.30;99.90
17948;DHT22;9099;47.958;11.366;2022-11-04T06:48:57;9.30;99.90
17948;DHT22;9099;47.958;11.366;2022-11-04T06:51:25;9.30;99.90
17948;DHT22;9099;47.958;11.366;2022-11-04T06:53:52;9.20;99.90
17948;DHT22;9099;47.958;11.366;2022-11-04T06:56:18;9.10;99.90
17948;DHT22;9099;47.958;11.366;2022-11-04T06:58:47;9.20;99.90
17948;DHT22;9099;47.958;11.366;2022-11-04T07:01:14;9.10;99.90
17948;DHT22;9099;47.958;11.366;2022-11-04T07:03:47;9.10;99.90
17948;DHT22;9099;47.958;11.366;2022-11-04T07:06:13;9.00;99.90
17948;DHT22;9099;47.958;11.366;2022-11-04T07:08:40;9.00;99.90
17948;DHT22;9099;47.958;11.366;2022-11-04T07:11:07;9.00;99.90
17948;DHT22;9099;47.958;11.366;2022-11-04T07:13:34;9.00;99.90
17948;DHT22;9099;47.958;11.366;2022-11-04T07:16:03;8.90;99.90
17948;DHT22;9099;47.958;11.366;2022-11-04T07:18:30;8.90;99.90
17948;DHT22;9099;47.958;11.366;2022-11-04T07:20:58;8.90;99.90
17948;DHT22;9099;47.958;11.366;2022-11-04T07:23:25;8.90;99.90
17948;DHT22;9099;47.958;11.366;2022-11-04T07:25:52;8.90;99.90
17948;DHT22;9099;47.958;11.366;2022-11-04T07:28:19;8.90;99.90
17948;DHT22;9099;47.958;11.366;2022-11-04T07:30:46;8.90;99.90
17948;DHT22;9099;47.958;11.366;2022-11-04T07:33:13;8.80;99.90
17948;DHT22;9099;47.958;11.366;2022-11-04T07:35:40;8.70;99.90
17948;DHT22;9099;47.958;11.366;2022-11-04T07:38:08;8.80;99.90
17948;DHT22;9099;47.958;11.366;2022-11-04T07:40:35;8.80;99.90
17948;DHT22;9099;47.958;11.366;2022-11-04T07:43:03;8.80;99.90
17948;DHT22;9099;47.958;11.366;2022-11-04T07:45:31;8.80;99.90
17948;DHT22;9099;47.958;11.366;2022-11-04T07:47:58;8.80;99.90
17948;DHT22;9099;47.958;11.366;2022-11-04T07:50:25;8.80;99.90
17948;DHT22;9099;47.958;11.366;2022-11-04T07:52:51;8.80;99.90
17948;DHT22;9099;47.958;11.366;2022-11-04T07:55:19;8.80;99.90
17948;DHT22;9099;47.958;11.366;2022-11-04T07:57:47;8.80;99.90
17948;DHT22;9099;47.958;11.366;2022-11-04T08:00:15;8.80;99.90
17948;DHT22;9099;47.958;11.366;2022-11-04T08:02:42;8.80;99.90
17948;DHT22;9099;47.958;11.366;2022-11-04T08:05:11;8.90;99.90
17948;DHT22;9099;47.958;11.366;2022-11-04T08:07:38;8.90;99.90
17948;DHT22;9099;47.958;11.366;2022-11-04T08:10:05;8.90;99.90
17948;DHT22;9099;47.958;11.366;2022-11-04T08:12:33;9.00;99.90
17948;DHT22;9099;47.958;11.366;2022-11-04T08:15:03;9.00;99.90
17948;DHT22;9099;47.958;11.366;2022-11-04T08:17:30;9.00;99.90
17948;DHT22;9099;47.958;11.366;2022-11-04T08:19:57;9.00;99.90
17948;DHT22;9099;47.958;11.366;2022-11-04T08:22:23;9.10;99.90
17948;DHT22;9099;47.958;11.366;2022-11-04T08:24:50;9.10;99.90
17948;DHT22;9099;47.958;11.366;2022-11-04T08:27:17;9.10;99.90
17948;DHT22;9099;47.958;11.366;2022-11-04T08:29:45;9.10;99.90
17948;DHT22;9099;47.958;11.366;2022-11-04T08:32:12;9.20;99.90
17948;DHT22;9099;47.958;11.366;2022-11-04T08:34:39;9.10;99.90
17948;DHT22;9099;47.958;11.366;2022-11-04T08:37:06;9.20;99.90
17948;DHT22;9099;47.958;11.366;2022-11-04T08:39:33;9.20;99.90
17948;DHT22;9099;47.958;11.366;2022-11-04T08:42:00;9.20;99.90
17948;DHT22;9099;47.958;11.366;2022-11-04T08:44:27;9.40;99.90
17948;DHT22;9099;47.958;11.366;2022-11-04T08:46:55;9.50;99.90
17948;DHT22;9099;47.958;11.366;2022-11-04T08:49:22;9.50;99.90
17948;DHT22;9099;47.958;11.366;2022-11-04T08:51:48;9.50;99.90
17948;DHT22;9099;47.958;11.366;2022-11-04T08:54:21;9.50;99.90
17948;DHT22;9099;47.958;11.366;2022-11-04T08:56:48;9.50;99.90
17948;DHT22;9099;47.958;11.366;2022-11-04T08:59:15;9.40;99.90
17948;DHT22;9099;47.958;11.366;2022-11-04T09:01:42;9.40;99.90
17948;DHT22;9099;47.958;11.366;2022-11-04T09:04:11;9.50;99.90
17948;DHT22;9099;47.958;11.366;2022-11-04T09:06:40;9.60;99.90
17948;DHT22;9099;47.958;11.366;2022-11-04T09:09:10;9.70;99.90
17948;DHT22;9099;47.958;11.366;2022-11-04T09:11:39;9.60;99.90
17948;DHT22;9099;47.958;11.366;2022-11-04T09:14:08;9.70;99.90
17948;DHT22;9099;47.958;11.366;2022-11-04T09:16:36;9.60;99.90
17948;DHT22;9099;47.958;11.366;2022-11-04T09:19:03;9.70;99.90
17948;DHT22;9099;47.958;11.366;2022-11-04T09:21:31;9.70;99.90
17948;DHT22;9099;47.958;11.366;2022-11-04T09:23:58;9.70;99.90
17948;DHT22;9099;47.958;11.366;2022-11-04T09:26:25;9.70;99.90
17948;DHT22;9099;47.958;11.366;2022-11-04T09:28:53;9.70;99.90
17948;DHT22;9099;47.958;11.366;2022-11-04T09:31:20;9.70;99.90
17948;DHT22;9099;47.958;11.366;2022-11-04T09:33:47;9.60;99.90
17948;DHT22;9099;47.958;11.366;2022-11-04T09:36:14;9.60;99.90
17948;DHT22;9099;47.958;11.366;2022-11-04T09:38:43;9.50;99.90
17948;DHT22;9099;47.958;11.366;2022-11-04T09:41:35;9.40;99.90
17948;DHT22;9099;47.958;11.366;2022-11-04T09:44:13;9.40;99.90
17948;DHT22;9099;47.958;11.366;2022-11-04T09:46:45;9.40;99.90
17948;DHT22;9099;47.958;11.366;2022-11-04T09:49:14;9.40;99.90
17948;DHT22;9099;47.958;11.366;2022-11-04T09:51:43;9.40;99.90
17948;DHT22;9099;47.958;11.366;2022-11-04T09:54:19;9.40;99.90
17948;DHT22;9099;47.958;11.366;2022-11-04T09:56:48;9.30;99.90
17948;DHT22;9099;47.958;11.366;2022-11-04T09:59:20;9.10;99.90
17948;DHT22;9099;47.958;11.366;2022-11-04T10:01:57;9.10;99.90
17948;DHT22;9099;47.958;11.366;2022-11-04T10:04:33;9.10;99.90
17948;DHT22;9099;47.958;11.366;2022-11-04T10:07:12;9.10;99.90
17948;DHT22;9099;47.958;11.366;2022-11-04T10:09:53;9.10;99.90
17948;DHT22;9099;47.958;11.366;2022-11-04T10:12:39;9.00;99.90
17948;DHT22;9099;47.958;11.366;2022-11-04T10:15:16;9.10;99.90
17948;DHT22;9099;47.958;11.366;2022-11-04T10:17:57;9.20;99.90
17948;DHT22;9099;47.958;11.366;2022-11-04T10:20:37;9.20;99.90
17948;DHT22;9099;47.958;11.366;2022-11-04T10:23:13;9.20;99.90
17948;DHT22;9099;47.958;11.366;2022-11-04T10:25:49;9.30;99.90
17948;DHT22;9099;47.958;11.366;2022-11-04T10:28:25;9.40;99.90
17948;DHT22;9099;47.958;11.366;2022-11-04T10:30:55;9.20;99.90
17948;DHT22;9099;47.958;11.366;2022-11-04T10:33:27;9.30;99.90
17948;DHT22;9099;47.958;11.366;2022-11-04T10:35:58;9.30;99.90
17948;DHT22;9099;47.958;11.366;2022-11-04T10:38:32;9.40;99.90
17948;DHT22;9099;47.958;11.366;2022-11-04T10:41:15;9.30;99.90
17948;DHT22;9099;47.958;11.366;2022-11-04T10:43:44;9.30;99.90
17948;DHT22;9099;47.958;11.366;2022-11-04T10:46:21;9.40;99.90
17948;DHT22;9099;47.958;11.366;2022-11-04T10:48:58;9.30;99.90
17948;DHT22;9099;47.958;11.366;2022-11-04T10:51:26;9.10;99.90
17948;DHT22;9099;47.958;11.366;2022-11-04T10:53:55;9.00;99.90
17948;DHT22;9099;47.958;11.366;2022-11-04T10:56:32;9.00;99.90
17948;DHT22;9099;47.958;11.366;2022-11-04T10:59:13;9.00;99.90
17948;DHT22;9099;47.958;11.366;2022-11-04T11:01:47;8.90;99.90
17948;DHT22;9099;47.958;11.366;2022-11-04T11:04:25;8.90;99.90
17948;DHT22;9099;47.958;11.366;2022-11-04T11:06:52;8.90;99.90
17948;DHT22;9099;47.958;11.366;2022-11-04T11:09:21;9.00;99.90
17948;DHT22;9099;47.958;11.366;2022-11-04T11:11:57;9.10;99.90
17948;DHT22;9099;47.958;11.366;2022-11-04T11:14:34;9.10;99.90
17948;DHT22;9099;47.958;11.366;2022-11-04T11:17:17;9.10;99.90
17948;DHT22;9099;47.958;11.366;2022-11-04T11:19:48;9.00;99.90
17948;DHT22;9099;47.958;11.366;2022-11-04T11:22:32;9.00;99.90
17948;DHT22;9099;47.958;11.366;2022-11-04T11:25:19;8.80;99.90
17948;DHT22;9099;47.958;11.366;2022-11-04T11:27:49;8.80;99.90
17948;DHT22;9099;47.958;11.366;2022-11-04T11:30:22;8.90;99.90
17948;DHT22;9099;47.958;11.366;2022-11-04T11:32:55;8.90;99.90
17948;DHT22;9099;47.958;11.366;2022-11-04T11:35:25;9.00;99.90
17948;DHT22;9099;47.958;11.366;2022-11-04T11:37:53;9.00;99.90
17948;DHT22;9099;47.958;11.366;2022-11-04T11:40:28;9.00;99.90
17948;DHT22;9099;47.958;11.366;2022-11-04T11:42:58;9.10;99.90
17948;DHT22;9099;47.958;11.366;2022-11-04T11:45:26;9.10;99.90
17948;DHT22;9099;47.958;11.366;2022-11-04T11:47:54;9.10;99.90
17948;DHT22;9099;47.958;11.366;2022-11-04T11:50:23;9.10;99.90
17948;DHT22;9099;47.958;11.366;2022-11-04T11:53:11;9.20;99.90
17948;DHT22;9099;47.958;11.366;2022-11-04T11:55:45;9.20;99.90
17948;DHT22;9099;47.958;11.366;2022-11-04T11:58:22;9.20;99.90
17948;DHT22;9099;47.958;11.366;2022-11-04T12:00:53;9.30;99.90
17948;DHT22;9099;47.958;11.366;2022-11-04T12:03:28;9.30;99.90
17948;DHT22;9099;47.958;11.366;2022-11-04T12:06:11;9.30;99.90
17948;DHT22;9099;47.958;11.366;2022-11-04T12:08:54;9.40;99.90
17948;DHT22;9099;47.958;11.366;2022-11-04T12:11:26;9.50;99.90
17948;DHT22;9099;47.958;11.366;2022-11-04T12:14:00;9.50;99.90
17948;DHT22;9099;47.958;11.366;2022-11-04T12:16:36;9.40;99.90
17948;DHT22;9099;47.958;11.366;2022-11-04T12:19:38;9.40;99.90
17948;DHT22;9099;47.958;11.366;2022-11-04T12:22:19;9.30;99.90
17948;DHT22;9099;47.958;11.366;2022-11-04T12:24:55;9.30;99.90
17948;DHT22;9099;47.958;11.366;2022-11-04T12:27:34;9.30;99.90
17948;DHT22;9099;47.958;11.366;2022-11-04T12:30:06;9.30;99.90
17948;DHT22;9099;47.958;11.366;2022-11-04T12:32:47;9.30;99.90
17948;DHT22;9099;47.958;11.366;2022-11-04T12:35:34;9.30;99.90
17948;DHT22;9099;47.958;11.366;2022-11-04T12:38:20;9.20;99.90
17948;DHT22;9099;47.958;11.366;2022-11-04T12:40:59;9.20;99.90
17948;DHT22;9099;47.958;11.366;2022-11-04T12:43:34;9.10;99.90
17948;DHT22;9099;47.958;11.366;2022-11-04T12:46:11;9.00;99.90
17948;DHT22;9099;47.958;11.366;2022-11-04T12:49:03;8.90;99.90
17948;DHT22;9099;47.958;11.366;2022-11-04T12:51:43;8.80;99.90
17948;DHT22;9099;47.958;11.366;2022-11-04T12:54:27;8.70;99.90
17948;DHT22;9099;47.958;11.366;2022-11-04T12:57:09;8.80;99.90
17948;DHT22;9099;47.958;11.366;2022-11-04T12:59:48;8.90;99.90
17948;DHT22;9099;47.958;11.366;2022-11-04T13:02:24;8.90;99.90
17948;DHT22;9099;47.958;11.366;2022-11-04T13:04:58;8.90;99.90
17948;DHT22;9099;47.958;11.366;2022-11-04T13:07:30;8.90;99.90
17948;DHT22;9099;47.958;11.366;2022-11-04T13:10:05;9.00;99.90
17948;DHT22;9099;47.958;11.366;2022-11-04T13:12:36;8.90;99.90
17948;DHT22;9099;47.958;11.366;2022-11-04T13:15:11;8.80;99.90
17948;DHT22;9099;47.958;11.366;2022-11-04T13:17:42;8.80;99.90
17948;DHT22;9099;47.958;11.366;2022-11-04T13:20:27;8.80;99.90
17948;DHT22;9099;47.958;11.366;2022-11-04T13:23:01;8.90;99.90
17948;DHT22;9099;47.958;11.366;2022-11-04T13:25:35;8.90;99.90
17948;DHT22;9099;47.958;11.366;2022-11-04T13:28:08;8.90;99.90
17948;DHT22;9099;47.958;11.366;2022-11-04T13:30:40;8.80;99.90
17948;DHT22;9099;47.958;11.366;2022-11-04T13:33:19;8.70;99.90
17948;DHT22;9099;47.958;11.366;2022-11-04T13:35:54;8.60;99.90
17948;DHT22;9099;47.958;11.366;2022-11-04T13:38:27;8.70;99.90
17948;DHT22;9099;47.958;11.366;2022-11-04T13:41:03;8.60;99.90
17948;DHT22;9099;47.958;11.366;2022-11-04T13:43:34;8.70;99.90
17948;DHT22;9099;47.958;11.366;2022-11-04T13:46:19;8.60;99.90
17948;DHT22;9099;47.958;11.366;2022-11-04T13:48:55;8.40;99.90
17948;DHT22;9099;47.958;11.366;2022-11-04T13:51:37;8.30;99.90
17948;DHT22;9099;47.958;11.366;2022-11-04T13:54:05;8.30;99.90
17948;DHT22;9099;47.958;11.366;2022-11-04T13:56:35;8.40;99.90
17948;DHT22;9099;47.958;11.366;2022-11-04T13:59:06;8.30;99.90
17948;DHT22;9099;47.958;11.366;2022-11-04T14:01:42;8.30;99.90
17948;DHT22;9099;47.958;11.366;2022-11-04T14:04:28;8.30;99.90
17948;DHT22;9099;47.958;11.366;2022-11-04T14:06:57;8.30;99.90
17948;DHT22;9099;47.958;11.366;2022-11-04T14:12:32;8.20;99.90
17948;DHT22;9099;47.958;11.366;2022-11-04T14:15:08;8.20;99.90
17948;DHT22;9099;47.958;11.366;2022-11-04T14:18:01;8.10;99.90
17948;DHT22;9099;47.958;11.366;2022-11-04T14:20:33;8.00;99.90
17948;DHT22;9099;47.958;11.366;2022-11-04T14:23:03;8.00;99.90
17948;DHT22;9099;47.958;11.366;2022-11-04T14:25:34;8.00;99.90
17948;DHT22;9099;47.958;11.366;2022-11-04T14:28:16;8.00;99.90
17948;DHT22;9099;47.958;11.366;2022-11-04T14:30:47;8.10;99.90
17948;DHT22;9099;47.958;11.366;2022-11-04T14:33:22;8.10;99.90
17948;DHT22;9099;47.958;11.366;2022-11-04T14:35:55;8.20;99.90
17948;DHT22;9099;47.958;11.366;2022-11-04T14:38:28;8.20;99.90
17948;DHT22;9099;47.958;11.366;2022-11-04T14:41:14;8.40;99.90
17948;DHT22;9099;47.958;11.366;2022-11-04T14:43:43;8.40;99.90
17948;DHT22;9099;47.958;11.366;2022-11-04T14:46:12;8.40;99.90
17948;DHT22;9099;47.958;11.366;2022-11-04T14:48:45;8.40;99.90
17948;DHT22;9099;47.958;11.366;2022-11-04T14:51:23;8.50;99.90
17948;DHT22;9099;47.958;11.366;2022-11-04T14:53:54;8.60;99.90
17948;DHT22;9099;47.958;11.366;2022-11-04T14:56:24;8.60;99.90
17948;DHT22;9099;47.958;11.366;2022-11-04T14:58:57;8.50;99.90
17948;DHT22;9099;47.958;11.366;2022-11-04T15:01:26;8.50;99.90
17948;DHT22;9099;47.958;11.366;2022-11-04T15:03:55;8.40;99.90
17948;DHT22;9099;47.958;11.366;2022-11-04T15:06:26;8.30;99.90
17948;DHT22;9099;47.958;11.366;2022-11-04T15:08:54;8.30;99.90
17948;DHT22;9099;47.958;11.366;2022-11-04T15:11:23;8.30;99.90
17948;DHT22;9099;47.958;11.366;2022-11-04T15:14:16;8.30;99.90
17948;DHT22;9099;47.958;11.366;2022-11-04T15:16:47;8.30;99.90
17948;DHT22;9099;47.958;11.366;2022-11-04T15:19:20;8.30;99.90
17948;DHT22;9099;47.958;11.366;2022-11-04T15:21:50;8.20;99.90
17948;DHT22;9099;47.958;11.366;2022-11-04T15:24:17;8.20;99.90
17948;DHT22;9099;47.958;11.366;2022-11-04T15:26:48;8.20;99.90
17948;DHT22;9099;47.958;11.366;2022-11-04T15:29:16;8.30;99.90
17948;DHT22;9099;47.958;11.366;2022-11-04T15:31:51;8.30;99.90
17948;DHT22;9099;47.958;11.366;2022-11-04T15:34:19;8.30;99.90
17948;DHT22;9099;47.958;11.366;2022-11-04T15:36:47;8.20;99.90
17948;DHT22;9099;47.958;11.366;2022-11-04T15:39:19;8.10;99.90
17948;DHT22;9099;47.958;11.366;2022-11-04T15:41:47;8.10;99.90
17948;DHT22;9099;47.958;11.366;2022-11-04T15:44:45;8.10;99.90
17948;DHT22;9099;47.958;11.366;2022-11-04T15:47:23;8.10;99.90
17948;DHT22;9099;47.958;11.366;2022-11-04T15:49:52;8.00;99.90
17948;DHT22;9099;47.958;11.366;2022-11-04T15:52:21;7.90;99.90
17948;DHT22;9099;47.958;11.366;2022-11-04T15:54:51;7.80;99.90
17948;DHT22;9099;47.958;11.366;2022-11-04T15:57:21;7.70;99.90
17948;DHT22;9099;47.958;11.366;2022-11-04T15:59:51;7.70;99.90
17948;DHT22;9099;47.958;11.366;2022-11-04T16:02:24;7.60;99.90
17948;DHT22;9099;47.958;11.366;2022-11-04T16:05:03;7.50;99.90
17948;DHT22;9099;47.958;11.366;2022-11-04T16:07:35;7.50;99.90
17948;DHT22;9099;47.958;11.366;2022-11-04T16:10:23;7.40;99.90
17948;DHT22;9099;47.958;11.366;2022-11-04T16:12:54;7.40;99.90
17948;DHT22;9099;47.958;11.366;2022-11-04T16:15:33;7.40;99.90
17948;DHT22;9099;47.958;11.366;2022-11-04T16:18:01;7.30;99.90
17948;DHT22;9099;47.958;11.366;2022-11-04T16:20:28;7.30;99.90